Time;durP1;ratioP1;P1;durP2;ratioP2;P2;SDS_P1;SDS_P2;PMS_P1;PMS_P2;Temp;Humidity;BMP_temperature;BMP_pressure;BME280_temperature;BME280_humidity;BME280_pressure;Samples;Min_cycle;Max_cycle;Signal;HPM_P1;HPM_P2
2021/05/31 00:01:38;;;;;;;9.82;6.13;;;;;;;12.26;63.72;100984.41;4864694;28;101171;-81
2021/05/31 00:04:04;;;;;;;7.53;5.93;;;;;;;12.30;63.75;100980.78;4881456;28;96590;-82
2021/05/31 00:06:36;;;;;;;8.35;5.30;;;;;;;12.28;63.46;100980.84;4881903;28;96903;-81
2021/05/31 00:09:03;;;;;;;8.75;5.72;;;;;;;12.14;63.96;100978.59;4880880;28;100047;-81
2021/05/31 00:11:29;;;;;;;9.07;6.13;;;;;;;12.11;64.14;100969.94;4880973;28;97930;-81
2021/05/31 00:13:54;;;;;;;9.50;6.20;;;;;;;12.02;64.44;100967.59;4880742;28;97268;-81
2021/05/31 00:16:20;;;;;;;11.65;6.22;;;;;;;11.99;64.32;100972.03;4880139;28;96916;-81
2021/05/31 00:18:45;;;;;;;10.60;6.80;;;;;;;11.99;64.36;100972.03;4864637;28;100584;-79
2021/05/31 00:21:11;;;;;;;10.52;6.50;;;;;;;11.99;64.17;100971.19;4881026;28;101810;-80
2021/05/31 00:23:36;;;;;;;8.35;6.65;;;;;;;11.95;64.28;100966.91;4881362;28;96816;-80
2021/05/31 00:26:02;;;;;;;12.10;8.10;;;;;;;11.88;64.46;100979.38;4897714;28;97117;-80
2021/05/31 00:28:27;;;;;;;18.17;10.35;;;;;;;11.83;64.64;100972.50;4882092;28;100023;-80
2021/05/31 00:30:53;;;;;;;13.55;9.68;;;;;;;11.82;64.76;100968.16;4881094;28;100346;-80
2021/05/31 00:33:18;;;;;;;14.73;8.90;;;;;;;11.81;64.31;100971.66;4886760;28;96639;-80
2021/05/31 00:35:44;;;;;;;11.85;8.57;;;;;;;11.71;65.01;100971.94;4902985;28;97446;-78
2021/05/31 00:38:09;;;;;;;16.65;8.27;;;;;;;11.67;65.00;100966.81;4865217;28;100339;-80
2021/05/31 00:40:35;;;;;;;11.45;7.97;;;;;;;11.65;64.73;100966.84;4887177;28;96782;-80
2021/05/31 00:43:01;;;;;;;11.80;8.07;;;;;;;11.69;64.53;100965.88;4887351;28;97093;-81
2021/05/31 00:45:28;;;;;;;10.88;7.22;;;;;;;11.60;65.33;100974.00;4905951;28;97050;-80
2021/05/31 00:47:54;;;;;;;11.35;7.43;;;;;;;11.59;64.96;100960.91;4872658;28;100280;-80
2021/05/31 00:50:20;;;;;;;10.20;7.25;;;;;;;11.68;64.68;100958.00;4891108;28;98028;-81
2021/05/31 00:52:45;;;;;;;12.00;7.25;;;;;;;11.71;64.55;100950.03;4907921;28;96561;-80
2021/05/31 00:55:12;;;;;;;12.27;7.60;;;;;;;11.69;64.37;100950.09;4901365;28;96535;-79
2021/05/31 00:57:37;;;;;;;11.77;6.53;;;;;;;11.66;64.20;100947.53;4896524;28;98345;-81
2021/05/31 01:00:05;;;;;;;11.18;6.97;;;;;;;11.67;64.12;100951.03;4904187;28;96843;-80
2021/05/31 01:02:31;;;;;;;9.32;6.47;;;;;;;11.60;64.38;100952.09;4889850;28;97223;-81
2021/05/31 01:04:57;;;;;;;10.27;6.72;;;;;;;11.46;64.72;100956.00;4873671;28;96631;-80
2021/05/31 01:07:34;;;;;;;12.05;7.13;;;;;;;11.40;64.57;100960.53;4889434;28;101893;-81
2021/05/31 01:10:22;;;;;;;11.07;7.30;;;;;;;11.39;64.58;100959.69;4906835;28;97072;-80
2021/05/31 01:12:57;;;;;;;9.60;7.15;;;;;;;11.30;64.94;100958.16;4889434;28;96941;-79
2021/05/31 01:15:26;;;;;;;10.00;7.88;;;;;;;11.18;65.44;100944.50;4917100;28;96640;-80
2021/05/31 01:18:05;;;;;;;12.07;7.40;;;;;;;11.21;65.10;100952.31;4904946;28;99671;-78
2021/05/31 01:20:52;;;;;;;10.23;7.50;;;;;;;11.21;65.21;100947.03;4893334;28;100527;-81
2021/05/31 01:23:19;;;;;;;9.30;6.82;;;;;;;11.24;64.92;100947.81;4908973;28;96563;-80
2021/05/31 01:26:02;;;;;;;11.95;7.38;;;;;;;11.24;65.08;100944.34;4905019;28;96886;-81
2021/05/31 01:29:01;;;;;;;10.80;6.95;;;;;;;11.18;64.96;100952.38;4923163;28;96765;-80
2021/05/31 01:31:33;;;;;;;11.90;7.55;;;;;;;11.07;65.35;100943.00;4910456;28;97821;-81
2021/05/31 01:34:00;;;;;;;12.38;8.15;;;;;;;11.14;65.14;100943.72;4921620;28;96174;-79
2021/05/31 01:36:27;;;;;;;13.93;8.88;;;;;;;11.01;65.76;100943.16;4890998;28;96865;-80
2021/05/31 01:38:54;;;;;;;11.45;8.13;;;;;;;11.08;65.02;100936.88;4890106;28;99517;-78
2021/05/31 01:41:20;;;;;;;11.18;8.00;;;;;;;11.04;65.19;100939.59;4918889;28;102151;-80
2021/05/31 01:43:46;;;;;;;9.65;7.88;;;;;;;11.07;65.46;100948.25;4903462;28;96625;-80
2021/05/31 01:46:13;;;;;;;10.50;8.15;;;;;;;10.94;65.60;100941.63;4921012;28;96558;-80
2021/05/31 01:48:39;;;;;;;12.80;7.53;;;;;;;10.92;65.86;100945.19;4918026;28;96504;-81
2021/05/31 01:51:05;;;;;;;10.95;7.88;;;;;;;10.82;65.77;100945.41;4910924;28;97923;-81
2021/05/31 01:53:31;;;;;;;11.73;9.05;;;;;;;10.84;65.63;100942.72;4878404;28;96684;-81
2021/05/31 01:55:56;;;;;;;12.23;8.55;;;;;;;10.92;65.39;100938.16;4892295;28;96483;-80
2021/05/31 01:58:23;;;;;;;14.13;8.55;;;;;;;10.91;65.46;100935.56;4874941;28;100445;-81
2021/05/31 02:00:49;;;;;;;11.95;7.78;;;;;;;10.86;65.33;100933.91;4892419;28;97470;-81
2021/05/31 02:03:14;;;;;;;11.75;7.32;;;;;;;10.90;65.49;100931.22;4893629;28;96639;-80
2021/05/31 02:05:40;;;;;;;12.85;7.65;;;;;;;10.78;65.19;100933.25;4894060;28;96746;-81
2021/05/31 02:08:05;;;;;;;9.60;7.32;;;;;;;10.79;65.84;100926.22;4910306;28;98413;-81
2021/05/31 02:10:31;;;;;;;11.48;7.13;;;;;;;10.74;65.68;100926.34;4894484;28;99757;-81
2021/05/31 02:12:59;;;;;;;12.77;8.23;;;;;;;10.76;65.20;100926.31;4927077;28;96591;-79
2021/05/31 02:15:40;;;;;;;10.50;7.43;;;;;;;10.78;65.64;100924.50;4921912;28;96314;-81
2021/05/31 02:18:26;;;;;;;15.27;7.68;;;;;;;10.76;65.44;100924.56;4923749;28;99555;-81
2021/05/31 02:21:08;;;;;;;10.70;7.95;;;;;;;10.64;65.83;100919.59;4932893;28;97420;-79
2021/05/31 02:23:36;;;;;;;11.32;8.15;;;;;;;10.54;65.67;100929.47;4904474;28;96535;-81
2021/05/31 02:26:03;;;;;;;11.90;8.50;;;;;;;10.50;66.52;100925.22;4885533;28;97004;-81
2021/05/31 02:28:28;;;;;;;13.63;9.18;;;;;;;10.43;66.38;100927.09;4896061;28;97433;-82
2021/05/31 02:30:54;;;;;;;12.30;8.63;;;;;;;10.41;66.21;100925.41;4894337;28;100819;-79
2021/05/31 02:33:24;;;;;;;13.27;8.90;;;;;;;10.37;66.03;100924.63;4894169;28;96658;-81
2021/05/31 02:35:50;;;;;;;14.20;8.43;;;;;;;10.40;66.36;100928.94;4909451;28;96955;-81
2021/05/31 02:38:16;;;;;;;11.38;9.23;;;;;;;10.41;66.20;100931.53;4892780;28;100140;-80
2021/05/31 02:40:42;;;;;;;11.77;8.65;;;;;;;10.36;66.24;100936.03;4892709;28;100283;-81
2021/05/31 02:43:09;;;;;;;12.73;9.13;;;;;;;10.42;66.16;100925.38;4889000;28;97018;-81
2021/05/31 02:45:36;;;;;;;12.57;9.23;;;;;;;10.47;66.20;100927.91;4889202;28;96584;-80
2021/05/31 02:48:04;;;;;;;13.85;10.02;;;;;;;10.27;66.64;100928.38;4871553;28;101425;-81
2021/05/31 02:50:30;;;;;;;13.30;9.02;;;;;;;10.31;66.51;100927.38;4887957;28;99660;-80
2021/05/31 02:52:56;;;;;;;15.00;9.15;;;;;;;10.27;66.65;100920.50;4888361;28;96879;-79
2021/05/31 02:55:23;;;;;;;13.73;10.13;;;;;;;10.21;66.58;100925.84;4871939;28;96841;-81
2021/05/31 02:57:49;;;;;;;17.55;10.13;;;;;;;10.18;66.86;100928.53;4856701;28;99455;-81
2021/05/31 03:00:17;;;;;;;17.23;10.00;;;;;;;10.31;66.00;100929.16;4891170;28;97926;-81
2021/05/31 03:02:43;;;;;;;16.52;10.10;;;;;;;10.23;66.30;100934.53;4895070;28;96528;-81
2021/05/31 03:05:11;;;;;;;15.45;10.23;;;;;;;10.20;66.73;100932.84;4861953;28;96871;-81
2021/05/31 03:07:36;;;;;;;13.52;9.55;;;;;;;10.27;66.40;100933.63;4879974;28;99384;-81
2021/05/31 03:10:04;;;;;;;13.43;9.07;;;;;;;10.29;66.22;100938.81;4885144;28;100023;-79
2021/05/31 03:12:29;;;;;;;12.35;9.35;;;;;;;10.23;66.15;100941.56;4898500;28;96518;-82
2021/05/31 03:14:55;;;;;;;12.18;9.65;;;;;;;10.38;66.10;100939.47;4875365;28;97145;-81
2021/05/31 03:17:20;;;;;;;10.95;9.18;;;;;;;10.40;65.63;100935.03;4870037;28;101094;-81
2021/05/31 03:19:46;;;;;;;12.10;9.40;;;;;;;10.27;66.25;100940.59;4873107;28;98450;-81
2021/05/31 03:22:12;;;;;;;13.85;10.07;;;;;;;10.26;65.96;100933.59;4893529;28;96562;-82
2021/05/31 03:24:38;;;;;;;14.75;10.13;;;;;;;10.22;66.45;100931.97;4887493;28;96814;-82
2021/05/31 03:27:04;;;;;;;12.10;9.35;;;;;;;10.29;66.47;100933.56;4874377;28;99868;-81
2021/05/31 03:29:30;;;;;;;11.77;9.07;;;;;;;10.37;65.83;100947.38;4891477;28;100520;-82
2021/05/31 03:31:56;;;;;;;17.38;9.07;;;;;;;10.32;66.29;100934.34;4878109;28;96537;-81
2021/05/31 03:34:22;;;;;;;13.38;9.23;;;;;;;10.42;66.03;100927.16;4894056;28;97199;-81
2021/05/31 03:36:48;;;;;;;10.85;8.88;;;;;;;10.59;65.59;100932.84;4876771;28;101363;-82
2021/05/31 03:39:13;;;;;;;12.23;9.40;;;;;;;10.70;65.44;100922.06;4892910;28;100941;-81
2021/05/31 03:41:39;;;;;;;13.02;9.18;;;;;;;10.93;64.56;100923.25;4894008;28;96723;-81
2021/05/31 03:44:05;;;;;;;12.63;10.00;;;;;;;10.94;64.60;100927.59;4894251;28;96528;-79
2021/05/31 03:46:31;;;;;;;12.13;9.88;;;;;;;10.96;64.67;100931.91;4911918;28;97655;-82
2021/05/31 03:48:56;;;;;;;16.05;9.82;;;;;;;11.00;64.50;100927.47;4900296;28;99025;-80
2021/05/31 03:51:23;;;;;;;14.50;10.02;;;;;;;11.13;64.32;100920.09;4896349;28;96624;-82
2021/05/31 03:53:48;;;;;;;13.85;9.68;;;;;;;11.13;64.09;100926.22;4911631;28;96710;-82
2021/05/31 03:56:14;;;;;;;16.02;9.95;;;;;;;11.07;64.64;100927.25;4895711;28;101200;-81
2021/05/31 03:58:41;;;;;;;12.77;10.02;;;;;;;11.23;63.97;100925.09;4929131;28;97151;-81
2021/05/31 04:01:07;;;;;;;16.48;10.07;;;;;;;11.29;64.00;100918.78;4912416;28;96531;-81
2021/05/31 04:03:35;;;;;;;16.73;10.68;;;;;;;11.44;64.16;100922.75;4913145;28;96645;-82
2021/05/31 04:13:54;;;;;;;13.52;10.23;;;;;;;11.59;63.57;100916.22;4900349;28;96924;-82
2021/05/31 04:16:20;;;;;;;12.65;9.57;;;;;;;11.63;63.45;100909.94;4895775;28;96810;-81
2021/05/31 04:18:46;;;;;;;15.27;10.68;;;;;;;11.64;63.25;100923.06;4913770;28;97481;-81
2021/05/31 04:21:11;;;;;;;11.65;9.30;;;;;;;11.72;63.16;100925.44;4897748;28;96576;-81
2021/05/31 04:23:37;;;;;;;16.20;8.70;;;;;;;11.95;63.32;100919.53;4879073;28;96873;-80
2021/05/31 04:26:02;;;;;;;12.50;8.75;;;;;;;12.05;63.00;100926.25;4874970;28;99649;-81
2021/05/31 04:28:28;;;;;;;11.18;9.10;;;;;;;12.12;62.53;100924.28;4876840;28;100460;-81
2021/05/31 04:30:53;;;;;;;12.75;8.80;;;;;;;12.24;62.39;100921.28;4876709;28;96551;-81
2021/05/31 04:33:19;;;;;;;12.32;9.30;;;;;;;12.41;61.90;100915.47;4906408;28;96963;-81
2021/05/31 04:35:45;;;;;;;16.10;9.15;;;;;;;12.56;62.21;100925.50;4891252;28;100768;-81
2021/05/31 04:38:10;;;;;;;16.98;9.13;;;;;;;12.66;61.66;100916.41;4873804;28;99784;-82
2021/05/31 04:40:36;;;;;;;16.38;9.00;;;;;;;12.73;62.10;100924.09;4889218;28;96966;-83
2021/05/31 04:43:02;;;;;;;17.77;10.63;;;;;;;12.90;61.44;100919.13;4870293;28;96855;-84
2021/05/31 04:45:28;;;;;;;15.65;9.05;;;;;;;13.17;61.16;100916.44;4883791;28;101367;-84
2021/05/31 04:47:53;;;;;;;12.50;10.45;;;;;;;13.25;60.08;100915.28;4867613;28;99311;-83
2021/05/31 04:50:19;;;;;;;13.57;9.00;;;;;;;13.35;59.81;100910.53;4881465;28;96727;-82
2021/05/31 04:52:44;;;;;;;16.67;9.23;;;;;;;13.71;59.63;100902.19;4865905;28;97418;-83
2021/05/31 04:55:15;;;;;;;13.55;9.27;;;;;;;13.71;58.99;100904.84;4864143;28;100968;-83
2021/05/31 04:57:41;;;;;;;18.07;8.73;;;;;;;13.68;59.33;100908.44;4897711;28;98222;-83
2021/05/31 05:00:07;;;;;;;11.88;8.48;;;;;;;14.16;58.17;100911.88;4865357;28;96574;-80
2021/05/31 05:02:33;;;;;;;11.57;8.63;;;;;;;14.30;57.51;100906.06;4880968;28;97055;-84
2021/05/31 05:04:58;;;;;;;11.48;8.23;;;;;;;14.53;56.96;100908.66;4865698;28;101027;-83
2021/05/31 05:07:24;;;;;;;13.25;8.25;;;;;;;15.04;56.33;100911.81;4864485;28;101477;-84
2021/05/31 05:09:50;;;;;;;12.95;8.13;;;;;;;15.21;55.16;100901.34;4881632;28;96683;-84
2021/05/31 05:12:15;;;;;;;10.80;8.25;;;;;;;15.43;54.37;100906.56;4896700;28;96954;-83
2021/05/31 05:14:43;;;;;;;10.45;7.55;;;;;;;15.52;54.54;100903.50;4865149;28;99598;-84
2021/05/31 05:17:08;;;;;;;13.90;7.72;;;;;;;15.68;54.09;100909.00;4895773;28;101333;-81
2021/05/31 05:19:34;;;;;;;11.43;8.00;;;;;;;15.77;53.86;100907.72;4877416;28;97105;-83
2021/05/31 05:22:00;;;;;;;8.55;5.97;;;;;;;16.14;53.42;100911.25;4865224;28;96685;-83
2021/05/31 05:24:25;;;;;;;10.20;7.95;;;;;;;16.26;52.37;100908.91;4864316;28;101058;-84
2021/05/31 05:26:51;;;;;;;10.55;6.88;;;;;;;16.42;51.61;100911.63;4864642;28;100849;-83
2021/05/31 05:29:17;;;;;;;7.97;6.22;;;;;;;16.68;50.95;100901.53;4864230;28;96613;-82
2021/05/31 05:31:43;;;;;;;11.20;6.68;;;;;;;16.96;50.59;100898.41;4864752;28;97156;-82
2021/05/31 05:34:08;;;;;;;12.15;6.65;;;;;;;17.19;50.17;100900.72;4864343;28;101479;-81
2021/05/31 05:36:47;;;;;;;8.98;6.10;;;;;;;17.68;49.16;100904.31;4879980;28;101762;-81
2021/05/31 05:39:24;;;;;;;36.63;8.57;;;;;;;17.83;47.54;100898.19;4881634;28;96664;-81
2021/05/31 05:42:07;;;;;;;13.32;6.43;;;;;;;18.10;46.59;100903.78;4881985;28;96910;-83
2021/05/31 05:49:45;;;;;;;7.03;5.35;;;;;;;20.40;43.13;100904.94;4896607;28;96895;-84
2021/05/31 05:52:12;;;;;;;6.68;5.10;;;;;;;21.07;40.88;100900.41;4880411;28;97186;-81
2021/05/31 05:54:38;;;;;;;10.55;5.50;;;;;;;22.40;39.25;100895.41;4879886;28;98320;-83
2021/05/31 05:57:04;;;;;;;8.40;4.78;;;;;;;22.94;38.27;100894.00;4864208;28;101176;-84
2021/05/31 05:59:30;;;;;;;6.55;4.72;;;;;;;23.27;37.02;100893.22;4863439;28;97275;-83
2021/05/31 06:01:55;;;;;;;8.30;4.97;;;;;;;23.44;35.52;100898.13;4880387;28;96943;-84
2021/05/31 06:04:21;;;;;;;10.50;4.70;;;;;;;24.70;34.63;100890.59;4862950;28;101447;-83
2021/05/31 06:06:47;;;;;;;7.22;4.85;;;;;;;25.78;34.00;100900.13;4858749;28;99955;-84
2021/05/31 06:09:15;;;;;;;6.50;5.28;;;;;;;26.03;32.19;100896.09;4858956;28;97139;-81
2021/05/31 06:11:41;;;;;;;8.65;4.50;;;;;;;25.97;31.28;100892.13;4859099;28;97122;-83
2021/05/31 06:14:07;;;;;;;8.10;4.63;;;;;;;26.51;31.42;100892.66;4862871;28;99201;-83
2021/05/31 06:16:33;;;;;;;8.75;4.38;;;;;;;27.19;29.93;100888.03;4878437;28;97800;-83
2021/05/31 06:18:58;;;;;;;6.50;5.25;;;;;;;27.85;29.47;100894.34;4879782;28;96750;-83
2021/05/31 06:21:25;;;;;;;10.05;5.07;;;;;;;28.24;29.16;100885.97;4863148;28;96605;-83
2021/05/31 06:23:51;;;;;;;6.03;4.63;;;;;;;28.02;28.26;100887.28;4879489;28;98144;-84
2021/05/31 06:26:16;;;;;;;9.18;5.07;;;;;;;28.42;28.31;100889.56;4879090;28;99961;-82
2021/05/31 06:28:42;;;;;;;8.90;5.07;;;;;;;28.31;28.53;100885.22;4857371;28;98532;-84
2021/05/31 06:31:07;;;;;;;10.45;5.40;;;;;;;29.03;28.83;100893.28;4862066;28;97264;-83
2021/05/31 06:33:33;;;;;;;9.88;4.93;;;;;;;29.48;27.87;100892.22;4861823;28;101526;-84
2021/05/31 06:36:01;;;;;;;8.07;4.60;;;;;;;29.48;28.01;100886.81;4878004;28;97992;-84
2021/05/31 06:38:27;;;;;;;16.08;8.85;;;;;;;30.04;27.35;100889.91;4884957;28;98645;-82
2021/05/31 06:40:53;;;;;;;10.73;4.90;;;;;;;30.31;26.85;100884.28;4881551;28;97565;-83
2021/05/31 06:43:18;;;;;;;12.57;10.52;;;;;;;30.79;26.84;100887.19;4872653;28;97995;-83
2021/05/31 06:45:44;;;;;;;12.30;5.20;;;;;;;30.96;25.54;100890.72;4857317;28;100799;-83
2021/05/31 06:48:10;;;;;;;9.48;8.68;;;;;;;31.02;25.55;100892.75;4855999;28;97942;-83
2021/05/31 06:50:36;;;;;;;6.72;4.57;;;;;;;31.16;25.10;100878.50;4871919;28;97628;-83
2021/05/31 06:53:02;;;;;;;13.80;4.75;;;;;;;32.02;25.24;100893.97;4856076;28;100943;-81
2021/05/31 06:55:30;;;;;;;14.02;5.70;;;;;;;31.41;24.86;100878.44;4856350;28;99680;-82
2021/05/31 06:57:56;;;;;;;9.55;4.80;;;;;;;31.82;25.29;100870.97;4857120;28;97270;-82
2021/05/31 07:00:24;;;;;;;7.70;4.50;;;;;;;32.17;24.54;100866.03;4857116;28;96811;-81
2021/05/31 07:02:50;;;;;;;11.40;4.80;;;;;;;32.34;24.32;100869.50;4857275;28;101490;-84
2021/05/31 07:05:16;;;;;;;12.32;10.05;;;;;;;32.08;24.41;100864.41;4848456;28;101669;-82
2021/05/31 07:07:41;;;;;;;6.68;4.18;;;;;;;32.13;24.22;100868.28;4884060;28;96982;-84
2021/05/31 07:10:12;;;;;;;7.47;3.40;;;;;;;32.23;23.94;100870.75;4853081;28;97275;-84
2021/05/31 07:12:38;;;;;;;7.05;2.90;;;;;;;32.59;23.82;100867.47;4854737;28;100907;-83
2021/05/31 07:15:06;;;;;;;6.32;3.30;;;;;;;32.96;23.72;100866.59;4878354;28;99873;-83
2021/05/31 07:17:33;;;;;;;6.95;3.10;;;;;;;33.12;23.38;100874.59;4878801;28;97022;-84
2021/05/31 07:19:59;;;;;;;4.90;2.70;;;;;;;32.88;22.83;100866.69;4878953;28;97118;-82
2021/05/31 07:22:25;;;;;;;3.03;2.40;;;;;;;32.32;22.78;100869.69;4861481;28;101440;-83
2021/05/31 07:24:51;;;;;;;3.58;2.30;;;;;;;32.28;22.80;100873.78;4878794;28;97910;-84
2021/05/31 07:27:17;;;;;;;5.35;2.63;;;;;;;32.48;23.41;100871.44;4862738;28;96670;-80
2021/05/31 07:29:43;;;;;;;5.10;2.38;;;;;;;33.04;22.60;100868.41;4869703;28;98207;-82
2021/05/31 07:32:08;;;;;;;9.20;3.13;;;;;;;33.41;22.31;100870.22;4880942;28;100440;-81
2021/05/31 07:34:34;;;;;;;3.03;2.10;;;;;;;33.30;21.96;100874.22;4881724;28;97745;-81
2021/05/31 07:37:00;;;;;;;3.80;2.50;;;;;;;33.18;22.23;100866.75;4870180;28;96916;-81
2021/05/31 07:39:26;;;;;;;4.65;2.70;;;;;;;32.93;22.45;100866.97;4901131;28;96937;-81
2021/05/31 07:41:51;;;;;;;5.45;5.00;;;;;;;32.75;22.39;100866.47;4903862;28;98525;-81
2021/05/31 07:44:17;;;;;;;5.22;2.97;;;;;;;32.70;22.82;100877.91;4884673;28;97383;-82
2021/05/31 07:46:43;;;;;;;7.65;2.67;;;;;;;32.91;22.91;100872.59;4883421;28;96574;-82
2021/05/31 07:49:08;;;;;;;7.30;3.05;;;;;;;33.47;22.84;100865.88;4900918;28;96909;-81
2021/05/31 07:51:34;;;;;;;10.77;8.93;;;;;;;33.22;22.75;100858.03;4860849;28;101517;-82
2021/05/31 07:54:00;;;;;;;8.98;8.38;;;;;;;33.40;22.92;100859.53;4880022;28;98415;-83
2021/05/31 07:56:27;;;;;;;9.75;8.85;;;;;;;33.16;22.63;100857.91;4880153;28;97025;-82
2021/05/31 07:58:54;;;;;;;6.20;3.15;;;;;;;33.15;23.45;100851.63;4859999;28;97881;-81
2021/05/31 08:01:20;;;;;;;5.00;2.88;;;;;;;33.34;23.02;100856.53;4865814;28;100894;-82
2021/05/31 08:03:47;;;;;;;7.93;3.38;;;;;;;33.67;22.77;100858.84;4865837;28;102249;-81
2021/05/31 08:06:13;;;;;;;8.98;3.60;;;;;;;33.71;23.15;100854.72;4882724;28;98184;-81
2021/05/31 08:08:39;;;;;;;7.68;5.63;;;;;;;33.92;22.74;100855.78;4870208;28;98171;-83
2021/05/31 08:11:06;;;;;;;6.38;2.97;;;;;;;34.65;22.13;100851.97;4896667;28;98726;-82
2021/05/31 08:13:31;;;;;;;4.10;2.58;;;;;;;34.31;21.64;100857.28;4877394;28;98110;-82
2021/05/31 08:15:57;;;;;;;5.35;2.70;;;;;;;34.37;21.94;100859.22;4884173;28;97437;-82
2021/05/31 08:18:23;;;;;;;5.40;4.90;;;;;;;34.59;21.86;100850.03;4879798;28;97320;-82
2021/05/31 08:20:49;;;;;;;9.02;8.27;;;;;;;34.61;21.13;100852.53;4864602;28;100623;-82
2021/05/31 08:23:15;;;;;;;8.48;7.68;;;;;;;33.95;21.72;100848.09;4865476;28;98538;-82
2021/05/31 08:25:42;;;;;;;7.53;6.85;;;;;;;33.83;21.00;100848.78;4870164;28;97058;-82
2021/05/31 08:28:08;;;;;;;3.08;1.92;;;;;;;34.49;20.72;100857.66;4883830;28;96665;-81
2021/05/31 08:30:35;;;;;;;5.10;2.00;;;;;;;34.63;20.71;100851.31;4886770;28;97514;-80
2021/05/31 08:33:03;;;;;;;4.78;2.13;;;;;;;34.50;20.74;100856.59;4862761;28;100413;-82
2021/05/31 08:35:29;;;;;;;2.42;1.95;;;;;;;34.68;20.68;100848.00;4876131;28;96866;-82
2021/05/31 08:37:55;;;;;;;3.80;1.88;;;;;;;34.81;20.11;100848.09;4864763;28;96943;-81
2021/05/31 08:40:21;;;;;;;4.13;2.50;;;;;;;35.15;20.07;100844.56;4867461;28;99832;-81
2021/05/31 08:42:47;;;;;;;3.75;1.90;;;;;;;35.10;19.88;100849.78;4862782;28;100902;-81
2021/05/31 08:45:15;;;;;;;3.58;1.90;;;;;;;35.00;19.91;100840.25;4881315;28;97268;-82
2021/05/31 08:47:43;;;;;;;4.43;2.13;;;;;;;34.49;20.40;100839.41;4879725;28;97041;-82
2021/05/31 08:50:10;;;;;;;4.60;1.67;;;;;;;34.42;20.84;100830.34;4873690;28;100974;-81
2021/05/31 08:52:36;;;;;;;6.32;2.15;;;;;;;34.32;20.78;100831.72;4884258;28;97918;-81
2021/05/31 08:55:06;;;;;;;4.13;2.00;;;;;;;34.64;21.04;100831.19;4863383;28;96798;-82
2021/05/31 08:57:31;;;;;;;;;;;;;;;34.16;20.55;100825.50;4876637;28;96987;-82
2021/05/31 09:00:00;;;;;;;3.17;1.83;;;;;;;34.06;20.07;100824.97;4876065;28;100459;-84
2021/05/31 09:02:31;;;;;;;4.28;1.73;;;;;;;33.63;21.09;100827.63;4864414;28;101149;-80
2021/05/31 09:04:57;;;;;;;4.20;1.75;;;;;;;32.98;21.43;100820.19;4872664;28;96841;-81
2021/05/31 09:07:23;;;;;;;4.38;2.00;;;;;;;32.79;21.50;100817.00;4869262;28;97233;-81
2021/05/31 09:09:48;;;;;;;4.70;2.05;;;;;;;32.46;21.94;100814.59;4885454;28;101045;-82
2021/05/31 09:12:21;;;;;;;6.03;2.00;;;;;;;31.63;22.29;100818.00;4878193;28;101625;-83
2021/05/31 09:14:58;;;;;;;3.45;1.90;;;;;;;31.50;22.23;100817.72;4859085;28;96792;-82
2021/05/31 09:17:25;;;;;;;4.95;1.80;;;;;;;31.19;22.25;100813.09;4859655;28;97146;-81
2021/05/31 09:19:51;;;;;;;3.70;2.28;;;;;;;30.89;22.48;100817.38;4890366;28;98878;-83
2021/05/31 09:22:16;;;;;;;3.20;1.70;;;;;;;30.86;22.07;100810.47;4889272;28;101291;-84
2021/05/31 09:24:59;;;;;;;2.70;2.33;;;;;;;30.09;20.68;100809.91;4874304;28;96658;-83
2021/05/31 09:27:26;;;;;;;7.22;5.40;;;;;;;29.73;22.38;100817.44;4859815;28;97093;-82
2021/05/31 09:29:59;;;;;;;2.70;1.63;;;;;;;29.66;22.13;100811.03;4859905;28;101602;-84
2021/05/31 09:32:26;;;;;;;4.18;1.45;;;;;;;29.59;21.04;100813.50;4873605;28;101018;-82
2021/05/31 09:35:08;;;;;;;4.95;1.52;;;;;;;29.44;20.75;100809.72;4879017;28;96958;-84
2021/05/31 09:37:45;;;;;;;6.20;5.32;;;;;;;29.23;20.50;100802.88;4877754;28;96799;-82
2021/05/31 09:40:12;;;;;;;6.97;5.38;;;;;;;29.32;21.03;100803.75;4889476;28;101550;-86
2021/05/31 09:42:50;;;;;;;7.40;5.90;;;;;;;29.00;20.29;100804.41;4860274;28;100095;-77
2021/05/31 09:45:16;;;;;;;9.65;5.40;;;;;;;28.32;20.71;100795.13;4877240;28;96971;-79
2021/05/31 09:47:42;;;;;;;2.53;1.30;;;;;;;28.40;22.02;100799.78;4875758;28;97464;-79
2021/05/31 09:50:09;;;;;;;4.97;4.57;;;;;;;28.38;21.67;100799.91;4870726;28;101618;-78
2021/05/31 09:52:35;;;;;;;5.70;1.30;;;;;;;28.24;19.97;100802.31;4880812;28;101300;-76
2021/05/31 09:55:06;;;;;;;2.28;1.42;;;;;;;28.01;18.91;100792.00;4889281;28;97130;-76
2021/05/31 09:57:36;;;;;;;7.60;6.90;;;;;;;27.60;18.91;100802.31;4876099;28;97217;-77
2021/05/31 10:00:15;;;;;;;5.22;4.82;;;;;;;27.33;20.61;100797.78;4876433;28;98151;-78
2021/05/31 10:05:35;;;;;;;;;;;;;;;26.57;22.33;100797.88;4877500;28;96598;-82
2021/05/31 10:10:29;;;;;;;3.03;2.67;;;;;;;26.57;25.26;100787.94;4875596;28;101339;-80
2021/05/31 10:12:55;;;;;;;8.48;2.10;;;;;;;26.48;25.85;100790.63;4859751;28;101741;-81
2021/05/31 10:15:24;;;;;;;6.47;3.13;;;;;;;26.17;26.87;100788.09;4859879;28;97090;-82
2021/05/31 10:17:54;;;;;;;4.68;1.75;;;;;;;26.16;27.13;100779.19;4875598;28;96896;-81
2021/05/31 10:20:20;;;;;;;2.90;1.70;;;;;;;25.96;27.11;100778.31;4844069;28;101505;-81
2021/05/31 10:22:46;;;;;;;4.70;4.32;;;;;;;25.81;27.60;100778.84;4858603;28;101269;-81
2021/05/31 10:25:13;;;;;;;8.27;4.10;;;;;;;25.40;27.52;100776.22;4860488;28;96769;-81
2021/05/31 10:27:40;;;;;;;3.95;3.65;;;;;;;25.12;27.81;100790.38;4844097;28;96946;-82
2021/05/31 10:30:11;;;;;;;4.47;2.08;;;;;;;24.60;28.17;100779.63;4860373;28;101066;-82
2021/05/31 10:32:37;;;;;;;6.20;1.95;;;;;;;24.28;28.61;100775.13;4859167;28;98552;-82
2021/05/31 10:35:16;;;;;;;4.55;2.05;;;;;;;23.91;29.06;100774.69;4860498;28;97063;-82
2021/05/31 10:37:51;;;;;;;3.33;1.85;;;;;;;23.83;29.87;100778.03;4844256;28;97052;-82
2021/05/31 10:40:17;;;;;;;6.53;5.93;;;;;;;23.75;28.78;100790.34;4844135;28;101259;-82
2021/05/31 10:42:45;;;;;;;7.68;5.10;;;;;;;23.72;29.58;100786.94;4875165;28;98034;-81
2021/05/31 10:45:16;;;;;;;4.78;4.30;;;;;;;24.04;30.73;100774.53;4844783;28;96741;-82
2021/05/31 10:47:41;;;;;;;6.07;3.40;;;;;;;23.99;30.17;100771.38;4876928;28;96529;-82
2021/05/31 10:50:15;;;;;;;5.55;3.65;;;;;;;23.95;31.06;100766.28;4876120;28;98160;-82
2021/05/31 10:52:50;;;;;;;4.53;3.40;;;;;;;24.09;31.22;100770.50;4843939;28;101265;-82
2021/05/31 10:55:16;;;;;;;9.00;5.25;;;;;;;24.01;30.44;100770.28;4876190;28;96675;-82
2021/05/31 10:57:42;;;;;;;6.75;4.60;;;;;;;23.90;30.06;100767.63;4875698;28;96891;-81
2021/05/31 11:00:08;;;;;;;5.25;4.40;;;;;;;24.00;30.41;100760.53;4859995;28;101149;-81
2021/05/31 11:02:33;;;;;;;5.68;4.47;;;;;;;24.15;31.36;100750.34;4843380;28;101464;-80
2021/05/31 11:05:09;;;;;;;8.32;4.15;;;;;;;24.04;31.22;100748.56;4876597;28;96921;-81
2021/05/31 11:07:35;;;;;;;8.18;3.00;;;;;;;23.59;31.17;100755.88;4862550;28;96980;-82
2021/05/31 11:10:15;;;;;;;5.55;2.25;;;;;;;23.33;31.81;100757.97;4874431;28;101192;-82
2021/05/31 11:12:41;;;;;;;3.73;2.33;;;;;;;23.19;31.71;100759.13;4874273;28;100432;-81
2021/05/31 11:15:09;;;;;;;4.18;2.30;;;;;;;23.30;32.78;100768.94;4875293;28;96659;-82
2021/05/31 11:17:49;;;;;;;7.18;4.78;;;;;;;23.61;33.74;100753.91;4874723;28;96984;-82
2021/05/31 11:20:16;;;;;;;6.03;5.10;;;;;;;23.85;32.20;100751.06;4859770;28;101142;-85
2021/05/31 11:22:52;;;;;;;6.15;5.55;;;;;;;23.85;32.84;100751.94;4858765;28;100393;-83
2021/05/31 11:25:20;;;;;;;6.25;5.63;;;;;;;23.81;32.97;100752.31;4876078;28;96744;-84
2021/05/31 11:27:51;;;;;;;7.85;5.40;;;;;;;23.66;32.88;100744.53;4844260;28;97067;-85
2021/05/31 11:30:21;;;;;;;6.30;5.38;;;;;;;23.46;33.27;100748.00;4875207;28;101819;-84
2021/05/31 11:32:47;;;;;;;6.20;4.90;;;;;;;23.41;33.78;100751.03;4859119;28;97975;-84
2021/05/31 11:35:15;;;;;;;9.70;5.43;;;;;;;23.50;33.46;100736.91;4860150;28;96699;-84
2021/05/31 11:37:42;;;;;;;8.02;2.17;;;;;;;23.43;34.04;100727.66;4859501;28;96875;-84
2021/05/31 11:40:17;;;;;;;3.00;2.05;;;;;;;23.55;34.02;100743.72;4844370;28;100173;-84